Lake City, Michigan
Current Conditions -  °F | °C
As of 1:54 PM on Friday 21 Nov 2014 (Local Time) from KCAD Reporting Station
Overcast Overcast  
Wind Chill: 10°   Ceiling: 11000
Heat Index: 22°   Visibility: 10mi
Dew Point: 14°   Wind: 13mph
Humidity: 70%   Direction: 220°SW
Pressure: 30.29"   Gusts: NA
Location:  44.34°N, 85.22°W
Report Text: KCAD 211854Z AUTO 22011KT 10SM OVC110 M05/M10 A3029 RMK AO2 T10561102
Loading
Personal Weather Stations






























Interactive Weather Map New forecast layout! Learn more

10-Day Weather Forecast

Advertisements
Track Severe Weather on mobile